sensor_id;sensor_type;location;lat;lon;timestamp;P1;durP1;ratioP1;P2;durP2;ratioP2
12451;SDS011;6291;48.924;12.204;2023-04-15T00:01:16;6.07;;;5.57;;
12451;SDS011;6291;48.924;12.204;2023-04-15T00:06:20;6.10;;;5.55;;
12451;SDS011;6291;48.924;12.204;2023-04-15T00:11:25;6.00;;;5.50;;
12451;SDS011;6291;48.924;12.204;2023-04-15T00:16:29;6.60;;;6.00;;
12451;SDS011;6291;48.924;12.204;2023-04-15T00:21:32;6.38;;;5.78;;
12451;SDS011;6291;48.924;12.204;2023-04-15T00:26:37;6.45;;;5.88;;
12451;SDS011;6291;48.924;12.204;2023-04-15T00:31:41;5.78;;;5.28;;
12451;SDS011;6291;48.924;12.204;2023-04-15T00:36:45;5.73;;;5.23;;
12451;SDS011;6291;48.924;12.204;2023-04-15T00:41:50;5.40;;;4.90;;
12451;SDS011;6291;48.924;12.204;2023-04-15T00:46:54;5.90;;;5.40;;
12451;SDS011;6291;48.924;12.204;2023-04-15T00:52:00;5.20;;;4.77;;
12451;SDS011;6291;48.924;12.204;2023-04-15T00:57:05;5.85;;;5.32;;
12451;SDS011;6291;48.924;12.204;2023-04-15T01:02:09;4.50;;;4.10;;
12451;SDS011;6291;48.924;12.204;2023-04-15T01:07:13;4.45;;;4.15;;
12451;SDS011;6291;48.924;12.204;2023-04-15T01:12:18;5.00;;;3.83;;
12451;SDS011;6291;48.924;12.204;2023-04-15T01:17:22;4.43;;;3.70;;
12451;SDS011;6291;48.924;12.204;2023-04-15T01:22:26;4.10;;;3.72;;
12451;SDS011;6291;48.924;12.204;2023-04-15T01:27:31;4.00;;;3.70;;
12451;SDS011;6291;48.924;12.204;2023-04-15T01:32:35;4.60;;;4.10;;
12451;SDS011;6291;48.924;12.204;2023-04-15T01:37:39;4.63;;;4.33;;
12451;SDS011;6291;48.924;12.204;2023-04-15T01:42:44;5.30;;;4.80;;
12451;SDS011;6291;48.924;12.204;2023-04-15T01:47:49;5.72;;;5.22;;
12451;SDS011;6291;48.924;12.204;2023-04-15T01:52:52;5.47;;;4.97;;
12451;SDS011;6291;48.924;12.204;2023-04-15T01:57:57;5.90;;;5.15;;
12451;SDS011;6291;48.924;12.204;2023-04-15T02:03:00;5.80;;;5.30;;
12451;SDS011;6291;48.924;12.204;2023-04-15T02:08:03;6.13;;;5.53;;
12451;SDS011;6291;48.924;12.204;2023-04-15T02:13:08;6.03;;;5.43;;
12451;SDS011;6291;48.924;12.204;2023-04-15T02:18:12;5.72;;;5.22;;
12451;SDS011;6291;48.924;12.204;2023-04-15T02:23:17;6.50;;;5.90;;
12451;SDS011;6291;48.924;12.204;2023-04-15T02:28:22;6.32;;;5.82;;
12451;SDS011;6291;48.924;12.204;2023-04-15T02:33:25;6.43;;;5.77;;
12451;SDS011;6291;48.924;12.204;2023-04-15T02:38:28;6.83;;;6.10;;
12451;SDS011;6291;48.924;12.204;2023-04-15T02:43:33;6.72;;;6.10;;
12451;SDS011;6291;48.924;12.204;2023-04-15T02:48:37;7.10;;;6.40;;
12451;SDS011;6291;48.924;12.204;2023-04-15T02:53:42;8.00;;;7.20;;
12451;SDS011;6291;48.924;12.204;2023-04-15T02:58:47;7.50;;;6.80;;
12451;SDS011;6291;48.924;12.204;2023-04-15T03:03:51;6.72;;;6.13;;
12451;SDS011;6291;48.924;12.204;2023-04-15T03:08:55;6.93;;;6.25;;
12451;SDS011;6291;48.924;12.204;2023-04-15T03:13:59;7.63;;;6.90;;
12451;SDS011;6291;48.924;12.204;2023-04-15T03:19:08;8.00;;;7.20;;
12451;SDS011;6291;48.924;12.204;2023-04-15T03:24:14;7.28;;;6.63;;
12451;SDS011;6291;48.924;12.204;2023-04-15T03:29:20;7.47;;;6.75;;
12451;SDS011;6291;48.924;12.204;2023-04-15T03:34:23;8.57;;;7.78;;
12451;SDS011;6291;48.924;12.204;2023-04-15T03:39:26;8.20;;;7.43;;
12451;SDS011;6291;48.924;12.204;2023-04-15T03:44:31;8.93;;;8.05;;
12451;SDS011;6291;48.924;12.204;2023-04-15T03:49:34;8.73;;;7.82;;
12451;SDS011;6291;48.924;12.204;2023-04-15T03:54:38;9.35;;;8.45;;
12451;SDS011;6291;48.924;12.204;2023-04-15T03:59:42;8.80;;;7.93;;
12451;SDS011;6291;48.924;12.204;2023-04-15T04:04:46;9.32;;;8.43;;
12451;SDS011;6291;48.924;12.204;2023-04-15T04:09:49;11.23;;;8.93;;
12451;SDS011;6291;48.924;12.204;2023-04-15T04:14:54;9.90;;;8.80;;
12451;SDS011;6291;48.924;12.204;2023-04-15T04:19:57;10.82;;;9.80;;
12451;SDS011;6291;48.924;12.204;2023-04-15T04:25:01;10.30;;;9.20;;
12451;SDS011;6291;48.924;12.204;2023-04-15T04:30:06;11.23;;;10.13;;
12451;SDS011;6291;48.924;12.204;2023-04-15T04:35:10;11.67;;;10.57;;
12451;SDS011;6291;48.924;12.204;2023-04-15T04:40:13;10.95;;;9.85;;
12451;SDS011;6291;48.924;12.204;2023-04-15T04:45:19;9.60;;;8.60;;
12451;SDS011;6291;48.924;12.204;2023-04-15T04:50:22;10.27;;;9.38;;
12451;SDS011;6291;48.924;12.204;2023-04-15T04:55:26;13.87;;;10.57;;
12451;SDS011;6291;48.924;12.204;2023-04-15T05:00:30;10.32;;;9.32;;
12451;SDS011;6291;48.924;12.204;2023-04-15T05:05:34;9.13;;;8.23;;
12451;SDS011;6291;48.924;12.204;2023-04-15T05:10:37;10.17;;;9.17;;
12451;SDS011;6291;48.924;12.204;2023-04-15T05:15:42;9.80;;;8.80;;
12451;SDS011;6291;48.924;12.204;2023-04-15T05:20:45;10.30;;;9.10;;
12451;SDS011;6291;48.924;12.204;2023-04-15T05:25:50;9.88;;;8.85;;
12451;SDS011;6291;48.924;12.204;2023-04-15T05:30:55;8.00;;;7.25;;
12451;SDS011;6291;48.924;12.204;2023-04-15T05:35:58;8.48;;;7.57;;
12451;SDS011;6291;48.924;12.204;2023-04-15T05:41:01;9.23;;;8.13;;
12451;SDS011;6291;48.924;12.204;2023-04-15T05:46:06;7.67;;;6.97;;
12451;SDS011;6291;48.924;12.204;2023-04-15T05:51:10;10.15;;;8.90;;
12451;SDS011;6291;48.924;12.204;2023-04-15T05:56:13;7.10;;;6.40;;
12451;SDS011;6291;48.924;12.204;2023-04-15T06:01:19;9.07;;;8.27;;
12451;SDS011;6291;48.924;12.204;2023-04-15T06:06:25;7.47;;;6.78;;
12451;SDS011;6291;48.924;12.204;2023-04-15T06:11:29;6.22;;;5.38;;
12451;SDS011;6291;48.924;12.204;2023-04-15T06:16:33;6.70;;;6.00;;
12451;SDS011;6291;48.924;12.204;2023-04-15T06:21:38;6.72;;;6.07;;
12451;SDS011;6291;48.924;12.204;2023-04-15T06:26:42;7.13;;;6.43;;
12451;SDS011;6291;48.924;12.204;2023-04-15T06:31:47;6.70;;;6.00;;
12451;SDS011;6291;48.924;12.204;2023-04-15T06:36:51;5.82;;;5.28;;
12451;SDS011;6291;48.924;12.204;2023-04-15T06:41:55;6.53;;;5.70;;
12451;SDS011;6291;48.924;12.204;2023-04-15T06:47:00;5.60;;;4.90;;
12451;SDS011;6291;48.924;12.204;2023-04-15T06:52:03;4.90;;;4.40;;
12451;SDS011;6291;48.924;12.204;2023-04-15T06:57:06;5.20;;;4.70;;
12451;SDS011;6291;48.924;12.204;2023-04-15T07:02:11;5.50;;;5.00;;
12451;SDS011;6291;48.924;12.204;2023-04-15T07:07:15;3.90;;;3.60;;
12451;SDS011;6291;48.924;12.204;2023-04-15T07:12:19;3.80;;;3.50;;
12451;SDS011;6291;48.924;12.204;2023-04-15T07:17:23;5.40;;;4.28;;
12451;SDS011;6291;48.924;12.204;2023-04-15T07:22:27;4.97;;;4.47;;
12451;SDS011;6291;48.924;12.204;2023-04-15T07:27:31;3.80;;;3.50;;
12451;SDS011;6291;48.924;12.204;2023-04-15T07:32:36;3.80;;;3.50;;
12451;SDS011;6291;48.924;12.204;2023-04-15T07:37:39;4.40;;;3.93;;
12451;SDS011;6291;48.924;12.204;2023-04-15T07:42:44;3.60;;;3.30;;
12451;SDS011;6291;48.924;12.204;2023-04-15T07:47:50;3.43;;;3.13;;
12451;SDS011;6291;48.924;12.204;2023-04-15T07:52:53;3.30;;;3.00;;
12451;SDS011;6291;48.924;12.204;2023-04-15T07:57:58;3.47;;;3.17;;
12451;SDS011;6291;48.924;12.204;2023-04-15T08:03:03;3.80;;;3.50;;
12451;SDS011;6291;48.924;12.204;2023-04-15T08:08:07;4.07;;;3.78;;
12451;SDS011;6291;48.924;12.204;2023-04-15T08:13:11;4.15;;;3.65;;
12451;SDS011;6291;48.924;12.204;2023-04-15T08:18:16;3.80;;;3.50;;
12451;SDS011;6291;48.924;12.204;2023-04-15T08:23:19;4.45;;;4.05;;
12451;SDS011;6291;48.924;12.204;2023-04-15T08:28:23;5.05;;;4.50;;
12451;SDS011;6291;48.924;12.204;2023-04-15T08:33:27;5.00;;;4.50;;
12451;SDS011;6291;48.924;12.204;2023-04-15T08:38:31;4.40;;;4.00;;
12451;SDS011;6291;48.924;12.204;2023-04-15T08:43:34;3.90;;;3.53;;
12451;SDS011;6291;48.924;12.204;2023-04-15T08:48:49;3.53;;;3.22;;
12451;SDS011;6291;48.924;12.204;2023-04-15T08:53:53;3.70;;;2.80;;
12451;SDS011;6291;48.924;12.204;2023-04-15T08:58:57;3.77;;;3.47;;
12451;SDS011;6291;48.924;12.204;2023-04-15T09:04:03;2.90;;;2.70;;
12451;SDS011;6291;48.924;12.204;2023-04-15T09:09:08;3.33;;;3.03;;
12451;SDS011;6291;48.924;12.204;2023-04-15T09:14:12;3.38;;;3.08;;
12451;SDS011;6291;48.924;12.204;2023-04-15T09:19:21;2.78;;;2.50;;
12451;SDS011;6291;48.924;12.204;2023-04-15T09:24:32;2.40;;;2.20;;
12451;SDS011;6291;48.924;12.204;2023-04-15T09:29:40;3.20;;;2.50;;
12451;SDS011;6291;48.924;12.204;2023-04-15T09:34:45;2.20;;;2.00;;
12451;SDS011;6291;48.924;12.204;2023-04-15T09:39:49;3.23;;;2.63;;
12451;SDS011;6291;48.924;12.204;2023-04-15T09:44:53;2.22;;;2.03;;
12451;SDS011;6291;48.924;12.204;2023-04-15T09:49:58;2.20;;;2.00;;
12451;SDS011;6291;48.924;12.204;2023-04-15T09:55:03;2.33;;;1.50;;
12451;SDS011;6291;48.924;12.204;2023-04-15T10:00:08;1.93;;;1.60;;
12451;SDS011;6291;48.924;12.204;2023-04-15T10:05:14;1.92;;;1.42;;
12451;SDS011;6291;48.924;12.204;2023-04-15T10:10:18;1.48;;;1.38;;
12451;SDS011;6291;48.924;12.204;2023-04-15T10:15:22;1.70;;;1.38;;
12451;SDS011;6291;48.924;12.204;2023-04-15T10:20:28;1.13;;;1.07;;
12451;SDS011;6291;48.924;12.204;2023-04-15T10:25:32;2.30;;;1.30;;
12451;SDS011;6291;48.924;12.204;2023-04-15T10:30:36;1.25;;;1.15;;
12451;SDS011;6291;48.924;12.204;2023-04-15T10:35:41;1.10;;;1.00;;
12451;SDS011;6291;48.924;12.204;2023-04-15T10:40:46;1.40;;;1.15;;
12451;SDS011;6291;48.924;12.204;2023-04-15T10:45:52;1.15;;;1.08;;
12451;SDS011;6291;48.924;12.204;2023-04-15T10:50:58;1.53;;;1.37;;
12451;SDS011;6291;48.924;12.204;2023-04-15T10:56:04;2.30;;;1.92;;
12451;SDS011;6291;48.924;12.204;2023-04-15T11:01:08;1.70;;;1.05;;
12451;SDS011;6291;48.924;12.204;2023-04-15T11:06:13;0.95;;;0.90;;
12451;SDS011;6291;48.924;12.204;2023-04-15T11:11:17;0.70;;;0.70;;
12451;SDS011;6291;48.924;12.204;2023-04-15T11:16:20;0.70;;;0.70;;
12451;SDS011;6291;48.924;12.204;2023-04-15T11:21:25;1.73;;;1.60;;
12451;SDS011;6291;48.924;12.204;2023-04-15T11:26:29;1.35;;;1.25;;
12451;SDS011;6291;48.924;12.204;2023-04-15T11:31:33;0.80;;;0.80;;
12451;SDS011;6291;48.924;12.204;2023-04-15T11:36:39;0.90;;;0.90;;
12451;SDS011;6291;48.924;12.204;2023-04-15T11:41:45;1.00;;;1.00;;
12451;SDS011;6291;48.924;12.204;2023-04-15T11:46:49;1.20;;;1.10;;
12451;SDS011;6291;48.924;12.204;2023-04-15T11:51:54;0.70;;;0.70;;
12451;SDS011;6291;48.924;12.204;2023-04-15T11:56:57;1.40;;;0.97;;
12451;SDS011;6291;48.924;12.204;2023-04-15T12:02:10;1.50;;;1.40;;
12451;SDS011;6291;48.924;12.204;2023-04-15T12:07:16;0.82;;;0.80;;
12451;SDS011;6291;48.924;12.204;2023-04-15T12:12:20;1.10;;;1.00;;
12451;SDS011;6291;48.924;12.204;2023-04-15T12:17:24;0.70;;;0.70;;
12451;SDS011;6291;48.924;12.204;2023-04-15T12:22:29;1.38;;;1.25;;
12451;SDS011;6291;48.924;12.204;2023-04-15T12:27:39;1.10;;;1.00;;
12451;SDS011;6291;48.924;12.204;2023-04-15T12:32:43;1.30;;;1.20;;
12451;SDS011;6291;48.924;12.204;2023-04-15T12:37:50;1.60;;;1.50;;
12451;SDS011;6291;48.924;12.204;2023-04-15T12:42:53;0.73;;;0.73;;
12451;SDS011;6291;48.924;12.204;2023-04-15T12:47:57;0.90;;;0.90;;
12451;SDS011;6291;48.924;12.204;2023-04-15T12:53:03;0.90;;;0.90;;
12451;SDS011;6291;48.924;12.204;2023-04-15T12:58:06;0.60;;;0.60;;
12451;SDS011;6291;48.924;12.204;2023-04-15T13:03:10;1.25;;;0.82;;
12451;SDS011;6291;48.924;12.204;2023-04-15T13:08:15;0.80;;;0.80;;
12451;SDS011;6291;48.924;12.204;2023-04-15T13:13:18;1.20;;;1.10;;
12451;SDS011;6291;48.924;12.204;2023-04-15T13:18:23;0.93;;;0.90;;
12451;SDS011;6291;48.924;12.204;2023-04-15T13:23:28;1.00;;;1.00;;
12451;SDS011;6291;48.924;12.204;2023-04-15T13:28:32;1.10;;;1.00;;
12451;SDS011;6291;48.924;12.204;2023-04-15T13:33:35;1.80;;;1.43;;
12451;SDS011;6291;48.924;12.204;2023-04-15T13:38:40;1.90;;;1.80;;
12451;SDS011;6291;48.924;12.204;2023-04-15T13:43:43;1.60;;;1.50;;
12451;SDS011;6291;48.924;12.204;2023-04-15T13:48:47;2.70;;;2.50;;
12451;SDS011;6291;48.924;12.204;2023-04-15T13:53:52;1.33;;;1.23;;
12451;SDS011;6291;48.924;12.204;2023-04-15T13:58:56;3.03;;;2.70;;
12451;SDS011;6291;48.924;12.204;2023-04-15T14:04:02;5.07;;;4.38;;
12451;SDS011;6291;48.924;12.204;2023-04-15T14:09:08;2.15;;;1.65;;
12451;SDS011;6291;48.924;12.204;2023-04-15T14:14:11;2.00;;;1.90;;
12451;SDS011;6291;48.924;12.204;2023-04-15T14:19:16;2.28;;;2.08;;
12451;SDS011;6291;48.924;12.204;2023-04-15T14:24:21;2.60;;;2.40;;
12451;SDS011;6291;48.924;12.204;2023-04-15T14:29:26;1.60;;;1.50;;
12451;SDS011;6291;48.924;12.204;2023-04-15T14:34:29;1.70;;;1.60;;
12451;SDS011;6291;48.924;12.204;2023-04-15T14:39:34;1.23;;;1.13;;
12451;SDS011;6291;48.924;12.204;2023-04-15T14:44:37;1.45;;;1.35;;
12451;SDS011;6291;48.924;12.204;2023-04-15T14:49:41;2.20;;;2.03;;
12451;SDS011;6291;48.924;12.204;2023-04-15T14:54:45;1.27;;;1.10;;
12451;SDS011;6291;48.924;12.204;2023-04-15T14:59:49;2.53;;;1.70;;
12451;SDS011;6291;48.924;12.204;2023-04-15T15:04:57;1.60;;;1.50;;
12451;SDS011;6291;48.924;12.204;2023-04-15T15:10:04;2.20;;;2.00;;
12451;SDS011;6291;48.924;12.204;2023-04-15T15:15:09;1.40;;;1.30;;
12451;SDS011;6291;48.924;12.204;2023-04-15T15:20:29;4.20;;;3.60;;
12451;SDS011;6291;48.924;12.204;2023-04-15T15:25:34;2.05;;;1.80;;
12451;SDS011;6291;48.924;12.204;2023-04-15T15:30:38;1.90;;;1.80;;
12451;SDS011;6291;48.924;12.204;2023-04-15T15:35:41;2.25;;;2.00;;
12451;SDS011;6291;48.924;12.204;2023-04-15T15:40:47;2.77;;;2.53;;
12451;SDS011;6291;48.924;12.204;2023-04-15T15:45:50;2.20;;;2.10;;
12451;SDS011;6291;48.924;12.204;2023-04-15T15:50:55;2.20;;;2.00;;
12451;SDS011;6291;48.924;12.204;2023-04-15T15:56:01;3.65;;;3.03;;
12451;SDS011;6291;48.924;12.204;2023-04-15T16:01:05;11.57;;;10.38;;
12451;SDS011;6291;48.924;12.204;2023-04-15T16:06:09;4.40;;;4.00;;
12451;SDS011;6291;48.924;12.204;2023-04-15T16:11:13;3.00;;;2.80;;
12451;SDS011;6291;48.924;12.204;2023-04-15T16:16:17;4.68;;;3.67;;
12451;SDS011;6291;48.924;12.204;2023-04-15T16:21:21;4.28;;;3.67;;
12451;SDS011;6291;48.924;12.204;2023-04-15T16:26:27;3.25;;;2.67;;
12451;SDS011;6291;48.924;12.204;2023-04-15T16:31:30;2.55;;;2.35;;
12451;SDS011;6291;48.924;12.204;2023-04-15T16:36:35;2.80;;;2.60;;
12451;SDS011;6291;48.924;12.204;2023-04-15T16:41:42;3.33;;;3.03;;
12451;SDS011;6291;48.924;12.204;2023-04-15T16:46:45;7.75;;;5.75;;
12451;SDS011;6291;48.924;12.204;2023-04-15T16:51:50;3.40;;;3.10;;
12451;SDS011;6291;48.924;12.204;2023-04-15T16:56:56;3.47;;;3.17;;
12451;SDS011;6291;48.924;12.204;2023-04-15T17:02:00;4.60;;;4.20;;
12451;SDS011;6291;48.924;12.204;2023-04-15T17:07:03;4.55;;;4.15;;
12451;SDS011;6291;48.924;12.204;2023-04-15T17:12:08;3.88;;;3.58;;
12451;SDS011;6291;48.924;12.204;2023-04-15T17:17:11;4.90;;;4.50;;
12451;SDS011;6291;48.924;12.204;2023-04-15T17:22:16;4.47;;;4.07;;
12451;SDS011;6291;48.924;12.204;2023-04-15T17:27:21;4.95;;;4.45;;
12451;SDS011;6291;48.924;12.204;2023-04-15T17:32:25;4.78;;;4.38;;
12451;SDS011;6291;48.924;12.204;2023-04-15T17:37:32;12.13;;;10.15;;
12451;SDS011;6291;48.924;12.204;2023-04-15T17:42:37;6.90;;;6.23;;
12451;SDS011;6291;48.924;12.204;2023-04-15T17:47:41;4.43;;;4.03;;
12451;SDS011;6291;48.924;12.204;2023-04-15T17:52:44;4.63;;;4.23;;
12451;SDS011;6291;48.924;12.204;2023-04-15T17:57:50;7.13;;;6.43;;
12451;SDS011;6291;48.924;12.204;2023-04-15T18:02:53;6.97;;;6.28;;
12451;SDS011;6291;48.924;12.204;2023-04-15T18:07:57;5.90;;;5.30;;
12451;SDS011;6291;48.924;12.204;2023-04-15T18:13:01;7.97;;;7.18;;
12451;SDS011;6291;48.924;12.204;2023-04-15T18:18:05;6.70;;;6.00;;
12451;SDS011;6291;48.924;12.204;2023-04-15T18:23:08;6.75;;;5.40;;
12451;SDS011;6291;48.924;12.204;2023-04-15T18:28:13;5.18;;;4.60;;
12451;SDS011;6291;48.924;12.204;2023-04-15T18:33:17;9.03;;;6.70;;
12451;SDS011;6291;48.924;12.204;2023-04-15T18:38:20;10.53;;;7.20;;
12451;SDS011;6291;48.924;12.204;2023-04-15T18:43:25;7.70;;;6.07;;
12451;SDS011;6291;48.924;12.204;2023-04-15T18:48:28;6.03;;;4.70;;
12451;SDS011;6291;48.924;12.204;2023-04-15T18:53:31;6.00;;;5.40;;
12451;SDS011;6291;48.924;12.204;2023-04-15T18:58:37;8.15;;;6.57;;
12451;SDS011;6291;48.924;12.204;2023-04-15T19:04:00;4.30;;;3.90;;
12451;SDS011;6291;48.924;12.204;2023-04-15T19:09:04;4.13;;;3.78;;
12451;SDS011;6291;48.924;12.204;2023-04-15T19:14:10;4.20;;;3.80;;
12451;SDS011;6291;48.924;12.204;2023-04-15T19:19:13;6.55;;;5.88;;
12451;SDS011;6291;48.924;12.204;2023-04-15T19:24:16;3.95;;;3.58;;
12451;SDS011;6291;48.924;12.204;2023-04-15T19:29:21;3.93;;;3.50;;
12451;SDS011;6291;48.924;12.204;2023-04-15T19:34:25;22.60;;;16.67;;
12451;SDS011;6291;48.924;12.204;2023-04-15T19:39:28;4.25;;;3.90;;
12451;SDS011;6291;48.924;12.204;2023-04-15T19:44:33;4.50;;;4.10;;
12451;SDS011;6291;48.924;12.204;2023-04-15T19:49:37;4.18;;;3.83;;
12451;SDS011;6291;48.924;12.204;2023-04-15T19:54:40;5.38;;;4.88;;
12451;SDS011;6291;48.924;12.204;2023-04-15T19:59:45;4.40;;;4.00;;
12451;SDS011;6291;48.924;12.204;2023-04-15T20:04:49;5.45;;;4.95;;
12451;SDS011;6291;48.924;12.204;2023-04-15T20:09:52;5.95;;;5.20;;
12451;SDS011;6291;48.924;12.204;2023-04-15T20:14:58;8.25;;;6.95;;
12451;SDS011;6291;48.924;12.204;2023-04-15T20:20:01;7.18;;;6.00;;
12451;SDS011;6291;48.924;12.204;2023-04-15T20:25:05;4.80;;;4.30;;
12451;SDS011;6291;48.924;12.204;2023-04-15T20:30:11;5.43;;;4.87;;
12451;SDS011;6291;48.924;12.204;2023-04-15T20:35:14;5.40;;;4.90;;
12451;SDS011;6291;48.924;12.204;2023-04-15T20:40:17;12.07;;;8.80;;
12451;SDS011;6291;48.924;12.204;2023-04-15T20:45:23;6.32;;;5.70;;
12451;SDS011;6291;48.924;12.204;2023-04-15T20:50:26;5.07;;;4.60;;
12451;SDS011;6291;48.924;12.204;2023-04-15T20:55:30;5.53;;;5.03;;
12451;SDS011;6291;48.924;12.204;2023-04-15T21:00:34;6.30;;;5.70;;
12451;SDS011;6291;48.924;12.204;2023-04-15T21:05:38;5.65;;;5.05;;
12451;SDS011;6291;48.924;12.204;2023-04-15T21:10:41;8.27;;;6.38;;
12451;SDS011;6291;48.924;12.204;2023-04-15T21:15:47;10.13;;;6.50;;
12451;SDS011;6291;48.924;12.204;2023-04-15T21:20:54;9.97;;;6.20;;
12451;SDS011;6291;48.924;12.204;2023-04-15T21:25:58;9.02;;;6.68;;
12451;SDS011;6291;48.924;12.204;2023-04-15T21:31:03;6.30;;;5.70;;
12451;SDS011;6291;48.924;12.204;2023-04-15T21:36:07;5.83;;;4.53;;
12451;SDS011;6291;48.924;12.204;2023-04-15T21:41:10;7.18;;;5.40;;
12451;SDS011;6291;48.924;12.204;2023-04-15T21:46:15;5.95;;;5.22;;
12451;SDS011;6291;48.924;12.204;2023-04-15T21:51:25;7.18;;;6.00;;
12451;SDS011;6291;48.924;12.204;2023-04-15T21:56:28;5.57;;;5.07;;
12451;SDS011;6291;48.924;12.204;2023-04-15T22:01:33;5.38;;;4.80;;
12451;SDS011;6291;48.924;12.204;2023-04-15T22:06:36;5.78;;;5.18;;
12451;SDS011;6291;48.924;12.204;2023-04-15T22:11:40;6.20;;;5.60;;
12451;SDS011;6291;48.924;12.204;2023-04-15T22:16:44;6.95;;;6.07;;
12451;SDS011;6291;48.924;12.204;2023-04-15T22:21:48;6.88;;;5.82;;
12451;SDS011;6291;48.924;12.204;2023-04-15T22:26:52;7.13;;;6.03;;
12451;SDS011;6291;48.924;12.204;2023-04-15T22:31:56;6.82;;;6.13;;
12451;SDS011;6291;48.924;12.204;2023-04-15T22:37:00;6.80;;;6.10;;
12451;SDS011;6291;48.924;12.204;2023-04-15T22:42:05;7.07;;;6.38;;
12451;SDS011;6291;48.924;12.204;2023-04-15T22:47:10;6.57;;;5.90;;
12451;SDS011;6291;48.924;12.204;2023-04-15T22:52:13;7.97;;;6.30;;
12451;SDS011;6291;48.924;12.204;2023-04-15T22:57:30;6.72;;;6.05;;
12451;SDS011;6291;48.924;12.204;2023-04-15T23:02:35;7.18;;;6.45;;
12451;SDS011;6291;48.924;12.204;2023-04-15T23:07:38;6.80;;;5.90;;
12451;SDS011;6291;48.924;12.204;2023-04-15T23:12:42;6.68;;;6.05;;
12451;SDS011;6291;48.924;12.204;2023-04-15T23:17:46;7.15;;;6.45;;
12451;SDS011;6291;48.924;12.204;2023-04-15T23:22:50;7.63;;;6.73;;
12451;SDS011;6291;48.924;12.204;2023-04-15T23:27:53;7.18;;;6.47;;
12451;SDS011;6291;48.924;12.204;2023-04-15T23:32:58;7.57;;;6.38;;
12451;SDS011;6291;48.924;12.204;2023-04-15T23:38:01;7.22;;;6.32;;
12451;SDS011;6291;48.924;12.204;2023-04-15T23:43:05;7.10;;;6.40;;
12451;SDS011;6291;48.924;12.204;2023-04-15T23:48:10;7.85;;;7.03;;
12451;SDS011;6291;48.924;12.204;2023-04-15T23:53:13;7.77;;;6.97;;
12451;SDS011;6291;48.924;12.204;2023-04-15T23:58:16;8.02;;;7.22;;
